createdAt,value
2023-02-11T00:01:26.776Z,43.93
2023-02-11T00:03:55.789Z,52.70
2023-02-11T00:06:24.584Z,53.23
2023-02-11T00:08:53.080Z,45.00
2023-02-11T00:11:24.129Z,47.97
2023-02-11T00:13:53.162Z,45.30
2023-02-11T00:16:22.448Z,45.93
2023-02-11T00:18:53.252Z,45.90
2023-02-11T00:21:24.174Z,45.00
2023-02-11T00:23:53.089Z,49.87
2023-02-11T00:26:25.909Z,49.20
2023-02-11T00:28:54.972Z,46.90
2023-02-11T00:31:25.630Z,50.03
2023-02-11T00:33:56.215Z,48.50
2023-02-11T00:36:27.254Z,44.43
2023-02-11T00:38:57.885Z,46.20
2023-02-11T00:41:26.876Z,45.70
2023-02-11T00:43:57.407Z,47.93
2023-02-11T00:46:25.874Z,43.03
2023-02-11T00:48:57.933Z,50.53
2023-02-11T00:51:27.020Z,43.93
2023-02-11T00:53:55.734Z,43.83
2023-02-11T00:56:24.792Z,36.67
2023-02-11T00:58:54.087Z,41.03
2023-02-11T01:01:22.663Z,47.60
2023-02-11T01:03:51.400Z,42.10
2023-02-11T01:06:21.283Z,41.50
2023-02-11T01:08:49.767Z,45.97
2023-02-11T01:11:20.466Z,40.27
2023-02-11T01:13:50.180Z,49.90
2023-02-11T01:16:21.205Z,42.47
2023-02-11T01:18:53.412Z,44.93
2023-02-11T01:21:23.206Z,36.53
2023-02-11T01:23:52.770Z,36.77
2023-02-11T01:26:21.387Z,39.63
2023-02-11T01:28:49.849Z,34.77
2023-02-11T01:31:18.532Z,39.03
2023-02-11T01:33:47.110Z,42.60
2023-02-11T01:36:15.535Z,36.17
2023-02-11T01:38:45.665Z,36.17
2023-02-11T01:41:16.150Z,38.87
2023-02-11T01:43:46.196Z,40.60
2023-02-11T01:46:33.253Z,35.10
2023-02-11T01:49:07.241Z,42.57
2023-02-11T01:51:40.333Z,37.83
2023-02-11T01:54:30.430Z,41.90
2023-02-11T01:57:19.138Z,31.67
2023-02-11T01:59:52.393Z,34.27
2023-02-11T02:02:24.993Z,38.13
2023-02-11T02:04:59.070Z,34.73
2023-02-11T02:07:37.480Z,32.80
2023-02-11T02:10:12.648Z,33.60
2023-02-11T02:12:41.184Z,33.13
2023-02-11T02:15:31.662Z,32.97
2023-02-11T02:18:10.287Z,35.27
2023-02-11T02:21:23.443Z,39.67
2023-02-11T02:24:23.310Z,32.03
2023-02-11T02:27:11.453Z,36.60
2023-02-11T02:30:00.599Z,32.73
2023-02-11T02:32:45.228Z,39.17
2023-02-11T02:35:24.596Z,33.37
2023-02-11T02:37:58.454Z,33.73
2023-02-11T02:40:33.883Z,30.80
2023-02-11T02:43:04.204Z,30.30
2023-02-11T02:45:32.686Z,36.83
2023-02-11T02:48:02.443Z,29.03
2023-02-11T02:50:35.109Z,29.50
2023-02-11T02:53:20.043Z,34.43
2023-02-11T02:56:01.699Z,36.07
2023-02-11T02:58:48.150Z,29.10
2023-02-11T03:01:29.751Z,28.57
2023-02-11T03:04:07.307Z,34.37
2023-02-11T03:06:44.801Z,33.23
2023-02-11T03:09:17.917Z,26.63
2023-02-11T03:11:47.046Z,29.80
2023-02-11T03:14:19.968Z,29.30
2023-02-11T03:16:51.127Z,30.07
2023-02-11T03:19:25.577Z,29.00
2023-02-11T03:21:56.243Z,28.93
2023-02-11T03:24:31.745Z,29.63
2023-02-11T03:27:05.647Z,34.60
2023-02-11T03:29:40.605Z,27.57
2023-02-11T03:32:16.332Z,33.40
2023-02-11T03:34:50.727Z,27.77
2023-02-11T03:37:23.406Z,39.87
2023-02-11T03:39:55.890Z,33.07
2023-02-11T03:42:28.467Z,37.80
2023-02-11T03:45:02.932Z,26.63
2023-02-11T03:47:36.158Z,31.20
2023-02-11T03:50:09.328Z,31.80
2023-02-11T03:52:39.403Z,35.47
2023-02-11T03:55:12.483Z,29.50
2023-02-11T03:57:40.900Z,34.53
2023-02-11T04:00:11.463Z,28.60
2023-02-11T04:02:43.097Z,36.20
2023-02-11T04:05:16.297Z,33.83
2023-02-11T04:07:44.753Z,37.23
2023-02-11T04:10:14.110Z,34.10
2023-02-11T04:12:42.559Z,35.63
2023-02-11T04:15:11.376Z,39.57
2023-02-11T04:17:41.022Z,43.53
2023-02-11T04:20:10.601Z,37.30
2023-02-11T04:22:40.795Z,40.90
2023-02-11T04:25:10.537Z,46.90
2023-02-11T04:27:39.221Z,49.23
2023-02-11T04:30:10.079Z,44.93
2023-02-11T04:32:38.459Z,48.80
2023-02-11T04:35:07.853Z,45.87
2023-02-11T04:37:36.828Z,53.40
2023-02-11T04:40:07.865Z,46.73
2023-02-11T04:42:36.320Z,48.97
2023-02-11T04:45:05.427Z,52.93
2023-02-11T04:47:33.848Z,60.87
2023-02-11T04:50:02.269Z,47.20
2023-02-11T04:52:30.711Z,52.67
2023-02-11T04:54:59.057Z,59.93
2023-02-11T04:57:28.874Z,47.77
2023-02-11T04:59:57.369Z,51.63
2023-02-11T05:02:25.763Z,54.67
2023-02-11T05:04:54.202Z,52.83
2023-02-11T05:07:22.686Z,47.40
2023-02-11T05:09:51.142Z,48.90
2023-02-11T05:12:19.670Z,51.33
2023-02-11T05:14:49.633Z,47.57
2023-02-11T05:17:17.943Z,41.97
2023-02-11T05:19:46.530Z,41.80
2023-02-11T05:22:14.904Z,38.67
2023-02-11T05:24:43.348Z,50.40
2023-02-11T05:27:11.907Z,43.37
2023-02-11T05:29:40.490Z,44.43
2023-02-11T05:32:10.329Z,33.37
2023-02-11T05:34:38.678Z,36.63
2023-02-11T05:37:07.510Z,52.27
2023-02-11T05:39:35.909Z,46.07
2023-02-11T05:42:04.703Z,52.67
2023-02-11T05:44:33.185Z,54.03
2023-02-11T05:47:01.738Z,47.57
2023-02-11T05:49:31.698Z,44.87
2023-02-11T05:52:00.200Z,47.87
2023-02-11T05:54:28.596Z,47.97
2023-02-11T05:56:57.105Z,40.33
2023-02-11T05:59:26.331Z,45.50
2023-02-11T06:01:54.686Z,47.63
2023-02-11T06:04:23.109Z,49.40
2023-02-11T06:06:52.849Z,42.53
2023-02-11T06:09:21.543Z,53.73
2023-02-11T06:11:49.910Z,44.10
2023-02-11T06:14:18.372Z,51.83
2023-02-11T06:16:46.982Z,54.03
2023-02-11T06:19:15.321Z,40.57
2023-02-11T06:21:44.632Z,42.00
2023-02-11T06:24:15.452Z,44.37
2023-02-11T06:26:44.742Z,39.93
2023-02-11T06:29:16.349Z,45.13
2023-02-11T06:31:44.780Z,51.00
2023-02-11T06:34:13.230Z,43.83
2023-02-11T06:36:42.932Z,44.50
2023-02-11T06:39:13.477Z,51.57
2023-02-11T06:41:43.232Z,45.30
2023-02-11T06:44:11.770Z,45.13
2023-02-11T06:46:42.633Z,42.90
2023-02-11T06:49:11.343Z,45.60
2023-02-11T06:51:39.644Z,51.63
2023-02-11T06:54:08.697Z,61.87
2023-02-11T06:56:37.065Z,37.93
2023-02-11T06:59:06.990Z,49.93
2023-02-11T07:01:35.431Z,45.93
2023-02-11T07:04:03.891Z,40.63
2023-02-11T07:06:32.353Z,47.80
2023-02-11T07:09:00.755Z,44.90
2023-02-11T07:11:30.305Z,43.37
2023-02-11T07:14:02.407Z,40.20
2023-02-11T07:16:33.091Z,45.17
2023-02-11T07:19:01.827Z,47.17
2023-02-11T07:21:30.316Z,45.60
2023-02-11T07:23:58.802Z,44.70
2023-02-11T07:26:27.227Z,42.47
2023-02-11T07:28:55.505Z,54.83
2023-02-11T07:31:25.721Z,44.70
2023-02-11T07:33:57.206Z,48.27
2023-02-11T07:36:25.996Z,41.93
2023-02-11T07:38:54.590Z,47.20
2023-02-11T07:41:24.734Z,58.73
2023-02-11T07:43:53.694Z,47.97
2023-02-11T07:46:25.126Z,57.67
2023-02-11T07:48:55.766Z,45.53
2023-02-11T07:51:26.513Z,44.33
2023-02-11T07:53:56.317Z,40.30
2023-02-11T07:56:25.406Z,49.23
2023-02-11T07:58:53.800Z,49.33
2023-02-11T08:01:25.505Z,55.17
2023-02-11T08:03:56.384Z,47.10
2023-02-11T08:06:27.232Z,42.47
2023-02-11T08:08:56.054Z,46.20
2023-02-11T08:11:26.248Z,54.27
2023-02-11T08:13:55.864Z,56.93
2023-02-11T08:16:26.036Z,53.53
2023-02-11T08:19:01.146Z,48.93
2023-02-11T08:21:30.206Z,62.30
2023-02-11T08:23:59.253Z,54.73
2023-02-11T08:26:31.844Z,59.90
2023-02-11T08:29:00.746Z,61.83
2023-02-11T08:31:33.360Z,59.87
2023-02-11T08:34:03.465Z,64.23
2023-02-11T08:36:34.242Z,69.33
2023-02-11T08:39:18.751Z,77.10
2023-02-11T08:41:49.673Z,66.80
2023-02-11T08:44:18.613Z,69.40
2023-02-11T08:46:47.635Z,65.90
2023-02-11T08:49:17.842Z,73.20
2023-02-11T08:51:46.851Z,74.63
2023-02-11T08:54:15.864Z,74.17
2023-02-11T08:56:44.715Z,69.57
2023-02-11T08:59:14.966Z,71.83
2023-02-11T09:01:44.432Z,74.47
2023-02-11T09:04:13.370Z,79.40
2023-02-11T09:06:43.121Z,82.63
2023-02-11T09:09:14.186Z,82.00
2023-02-11T09:11:43.928Z,72.37
2023-02-11T09:14:18.564Z,88.70
2023-02-11T09:16:47.160Z,82.47
2023-02-11T09:19:17.237Z,87.47
2023-02-11T09:21:47.579Z,85.17
2023-02-11T09:24:16.545Z,82.23
2023-02-11T09:26:45.177Z,95.17
2023-02-11T09:29:13.705Z,86.37
2023-02-11T09:31:42.311Z,86.47
2023-02-11T09:34:12.849Z,83.73
2023-02-11T09:36:42.328Z,91.13
2023-02-11T09:39:15.154Z,88.13
2023-02-11T09:41:58.772Z,81.87
2023-02-11T09:44:29.831Z,75.40
2023-02-11T09:47:01.051Z,86.27
2023-02-11T09:49:40.285Z,86.80
2023-02-11T09:52:19.102Z,84.83
2023-02-11T09:54:55.916Z,78.47
2023-02-11T09:57:29.271Z,70.83
2023-02-11T09:59:58.452Z,87.40
2023-02-11T10:02:38.114Z,86.70
2023-02-11T10:05:27.832Z,83.30
2023-02-11T10:08:03.865Z,94.50
2023-02-11T10:10:45.188Z,82.97
2023-02-11T10:13:42.117Z,87.07
2023-02-11T10:16:23.287Z,85.07
2023-02-11T10:19:08.788Z,86.23
2023-02-11T10:21:46.723Z,80.27
2023-02-11T10:24:17.236Z,80.37
2023-02-11T10:26:47.848Z,87.33
2023-02-11T10:29:32.132Z,83.10
2023-02-11T10:32:01.970Z,90.50
2023-02-11T10:34:30.389Z,84.33
2023-02-11T10:36:59.037Z,88.33
2023-02-11T10:39:28.939Z,82.23
2023-02-11T10:42:03.779Z,81.60
2023-02-11T10:44:35.390Z,90.53
2023-02-11T10:47:06.971Z,76.67
2023-02-11T10:49:38.624Z,83.77
2023-02-11T10:52:16.565Z,83.63
2023-02-11T10:54:57.863Z,84.10
2023-02-11T10:57:31.097Z,87.63
2023-02-11T11:00:01.601Z,80.87
2023-02-11T11:02:34.678Z,83.47
2023-02-11T11:05:07.419Z,82.10
2023-02-11T11:07:36.432Z,74.30
2023-02-11T11:10:08.539Z,75.70
2023-02-11T11:12:49.135Z,92.30
2023-02-11T11:15:21.846Z,71.50
2023-02-11T11:17:50.734Z,76.60
2023-02-11T11:20:24.841Z,80.80
2023-02-11T11:23:08.384Z,88.67
2023-02-11T11:25:39.611Z,82.40
2023-02-11T11:28:21.707Z,82.30
2023-02-11T11:30:50.777Z,80.40
2023-02-11T11:33:23.087Z,84.77
2023-02-11T11:36:02.632Z,73.43
2023-02-11T11:38:33.235Z,75.43
2023-02-11T11:41:26.178Z,76.77
2023-02-11T11:44:05.692Z,82.33
2023-02-11T11:46:37.225Z,83.00
2023-02-11T11:49:19.050Z,80.20
2023-02-11T11:51:58.049Z,75.90
2023-02-11T11:54:29.018Z,73.30
2023-02-11T11:57:03.894Z,81.70
2023-02-11T11:59:33.814Z,77.43
2023-02-11T12:02:20.610Z,74.83
2023-02-11T12:05:05.851Z,77.83
2023-02-11T12:07:53.019Z,80.33
2023-02-11T12:10:33.230Z,83.03
2023-02-11T12:13:11.821Z,81.40
2023-02-11T12:15:49.407Z,81.10
2023-02-11T12:18:38.795Z,75.47
2023-02-11T12:21:18.840Z,79.30
2023-02-11T12:24:02.159Z,81.07
2023-02-11T12:26:37.244Z,83.33
2023-02-11T12:29:15.322Z,75.13
2023-02-11T12:32:00.361Z,75.10
2023-02-11T12:34:49.084Z,75.50
2023-02-11T12:37:29.975Z,73.60
2023-02-11T12:40:10.482Z,82.83
2023-02-11T12:43:18.855Z,85.30
2023-02-11T12:46:17.761Z,82.07
2023-02-11T12:49:12.330Z,75.60
2023-02-11T12:52:00.793Z,83.53
2023-02-11T12:54:33.972Z,81.00
2023-02-11T12:57:07.681Z,71.63
2023-02-11T12:59:48.871Z,77.53
2023-02-11T13:02:25.992Z,71.47
2023-02-11T13:05:00.689Z,71.53
2023-02-11T13:07:35.146Z,80.63
2023-02-11T13:10:10.544Z,72.87
2023-02-11T13:12:57.397Z,80.97
2023-02-11T13:15:26.271Z,75.40
2023-02-11T13:18:03.084Z,68.83
2023-02-11T13:20:43.433Z,69.70
2023-02-11T13:23:20.655Z,67.33
2023-02-11T13:25:54.301Z,67.33
2023-02-11T13:28:32.402Z,64.97
2023-02-11T13:31:03.773Z,73.50
2023-02-11T13:33:34.083Z,68.93
2023-02-11T13:36:17.447Z,56.83
2023-02-11T13:39:08.188Z,69.83
2023-02-11T13:41:41.456Z,66.30
2023-02-11T13:44:27.691Z,62.77
2023-02-11T13:47:00.125Z,62.00
2023-02-11T13:49:36.240Z,58.73
2023-02-11T13:52:16.899Z,71.43
2023-02-11T13:54:50.740Z,62.23
2023-02-11T13:57:37.355Z,61.57
2023-02-11T14:00:50.916Z,61.00
2023-02-11T14:03:50.203Z,59.17
2023-02-11T14:07:01.507Z,59.47
2023-02-11T14:09:41.696Z,67.50
2023-02-11T14:12:32.622Z,72.97
2023-02-11T14:15:20.866Z,57.30
2023-02-11T14:17:49.543Z,57.50
2023-02-11T14:20:45.413Z,59.00
2023-02-11T14:23:28.502Z,67.60
2023-02-11T14:26:19.904Z,62.27
2023-02-11T14:28:52.739Z,62.77
2023-02-11T14:31:25.117Z,60.20
2023-02-11T14:34:18.811Z,64.00
2023-02-11T14:37:05.074Z,60.77
2023-02-11T14:39:55.194Z,60.67
2023-02-11T14:42:27.854Z,63.73
2023-02-11T14:45:05.509Z,61.37
2023-02-11T14:47:41.735Z,61.90
2023-02-11T14:50:20.529Z,62.07
2023-02-11T14:52:51.902Z,62.20
2023-02-11T14:55:34.130Z,64.13
2023-02-11T14:58:18.458Z,57.70
2023-02-11T15:00:55.820Z,62.13
2023-02-11T15:03:36.107Z,57.37
2023-02-11T15:06:08.526Z,68.20
2023-02-11T15:08:39.470Z,62.83
2023-02-11T15:11:13.525Z,57.60
2023-02-11T15:13:48.177Z,63.40
2023-02-11T15:16:20.774Z,68.67
2023-02-11T15:18:52.666Z,68.13
2023-02-11T15:21:22.962Z,70.47
2023-02-11T15:23:59.943Z,72.70
2023-02-11T15:26:29.682Z,74.43
2023-02-11T15:29:00.200Z,76.63
2023-02-11T15:31:32.391Z,69.80
2023-02-11T15:34:08.631Z,63.70
2023-02-11T15:36:37.164Z,66.63
2023-02-11T15:39:32.528Z,66.70
2023-02-11T15:42:23.010Z,72.63
2023-02-11T15:45:11.948Z,76.73
2023-02-11T15:47:58.692Z,65.17
2023-02-11T15:50:29.001Z,71.23
2023-02-11T15:53:00.563Z,72.23
2023-02-11T15:55:30.784Z,78.63
2023-02-11T15:58:02.268Z,67.80
2023-02-11T16:00:36.982Z,71.50
2023-02-11T16:03:05.917Z,73.80
2023-02-11T16:05:38.382Z,67.00
2023-02-11T16:08:22.761Z,66.67
2023-02-11T16:10:59.631Z,75.17
2023-02-11T16:13:30.311Z,75.43
2023-02-11T16:16:04.841Z,76.80
2023-02-11T16:18:39.638Z,72.43
2023-02-11T16:21:16.057Z,75.47
2023-02-11T16:23:50.939Z,74.43
2023-02-11T16:26:25.913Z,83.23
2023-02-11T16:28:54.812Z,76.13
2023-02-11T16:31:24.902Z,77.23
2023-02-11T16:33:53.410Z,77.20
2023-02-11T16:36:23.951Z,81.53
2023-02-11T16:38:53.690Z,74.10
2023-02-11T16:41:22.117Z,81.43
2023-02-11T16:43:50.489Z,77.37
2023-02-11T16:46:19.160Z,86.03
2023-02-11T16:48:49.122Z,73.77
2023-02-11T16:51:17.578Z,76.20
2023-02-11T16:53:46.089Z,85.00
2023-02-11T16:56:17.799Z,82.07
2023-02-11T16:58:46.676Z,83.70
2023-02-11T17:01:15.247Z,79.17
2023-02-11T17:03:44.095Z,90.37
2023-02-11T17:06:14.903Z,83.87
2023-02-11T17:08:43.521Z,78.17
2023-02-11T17:11:16.709Z,82.27
2023-02-11T17:13:45.369Z,79.83
2023-02-11T17:16:19.383Z,82.03
2023-02-11T17:18:48.474Z,77.17
2023-02-11T17:21:18.667Z,83.50
2023-02-11T17:23:50.822Z,83.27
2023-02-11T17:26:19.607Z,85.63
2023-02-11T17:28:48.691Z,86.03
2023-02-11T17:31:17.517Z,87.57
2023-02-11T17:33:46.004Z,85.20
2023-02-11T17:36:14.430Z,84.27
2023-02-11T17:38:44.196Z,88.37
2023-02-11T17:41:13.132Z,80.97
2023-02-11T17:43:41.730Z,89.43
2023-02-11T17:46:11.247Z,88.23
2023-02-11T17:48:40.011Z,84.27
2023-02-11T17:51:23.352Z,86.53
2023-02-11T17:53:53.511Z,84.30
2023-02-11T17:56:22.276Z,97.50
2023-02-11T17:58:50.769Z,92.70
2023-02-11T18:01:19.337Z,94.50
2023-02-11T18:03:48.005Z,83.17
2023-02-11T18:06:16.457Z,85.93
2023-02-11T18:08:45.242Z,88.60
2023-02-11T18:11:16.539Z,86.90
2023-02-11T18:13:45.390Z,90.90
2023-02-11T18:16:15.991Z,85.20
2023-02-11T18:18:44.958Z,93.63
2023-02-11T18:21:15.755Z,88.73
2023-02-11T18:23:44.604Z,87.67
2023-02-11T18:26:15.870Z,81.40
2023-02-11T18:28:45.992Z,90.27
2023-02-11T18:31:17.076Z,94.57
2023-02-11T18:33:45.727Z,83.10
2023-02-11T18:36:15.803Z,86.63
2023-02-11T18:38:45.339Z,88.13
2023-02-11T18:41:15.693Z,80.50
2023-02-11T18:43:44.109Z,90.43
2023-02-11T18:46:15.463Z,100.07
2023-02-11T18:48:44.940Z,88.20
2023-02-11T18:51:15.945Z,92.57
2023-02-11T18:53:44.373Z,91.13
2023-02-11T18:56:16.292Z,97.80
2023-02-11T18:58:44.765Z,94.43
2023-02-11T19:01:15.730Z,92.03
2023-02-11T19:03:44.468Z,88.00
2023-02-11T19:06:17.968Z,99.87
2023-02-11T19:08:46.804Z,91.50
2023-02-11T19:11:18.791Z,94.63
2023-02-11T19:13:48.904Z,102.10
2023-02-11T19:16:20.067Z,91.90
2023-02-11T19:18:48.562Z,94.27
2023-02-11T19:21:16.968Z,96.77
2023-02-11T19:23:45.448Z,98.90
2023-02-11T19:26:13.924Z,105.83
2023-02-11T19:28:44.765Z,97.00
2023-02-11T19:31:13.383Z,111.43
2023-02-11T19:33:42.034Z,111.33
2023-02-11T19:36:12.035Z,101.93
2023-02-11T19:38:40.441Z,101.50
2023-02-11T19:41:08.933Z,115.53
2023-02-11T19:43:37.555Z,104.63
2023-02-11T19:46:07.540Z,99.17
2023-02-11T19:48:36.328Z,104.63
2023-02-11T19:51:12.051Z,103.43
2023-02-11T19:53:42.049Z,98.50
2023-02-11T19:56:10.737Z,97.40
2023-02-11T19:58:40.044Z,95.90
2023-02-11T20:01:12.258Z,106.43
2023-02-11T20:03:42.707Z,106.17
2023-02-11T20:06:14.506Z,100.43
2023-02-11T20:08:42.990Z,108.73
2023-02-11T20:11:13.332Z,102.73
2023-02-11T20:13:42.460Z,107.53
2023-02-11T20:16:14.634Z,97.47
2023-02-11T20:18:43.365Z,99.67
2023-02-11T20:21:14.270Z,100.43
2023-02-11T20:23:42.903Z,105.87
2023-02-11T20:26:13.766Z,105.77
2023-02-11T20:28:42.924Z,100.40
2023-02-11T20:31:13.729Z,98.77
2023-02-11T20:33:43.238Z,110.13
2023-02-11T20:36:15.006Z,95.50
2023-02-11T20:38:47.251Z,99.03
2023-02-11T20:41:18.882Z,118.53
2023-02-11T20:43:49.799Z,97.33
2023-02-11T20:46:21.729Z,97.17
2023-02-11T20:48:50.639Z,100.77
2023-02-11T20:51:20.749Z,105.97
2023-02-11T20:53:51.358Z,97.50
2023-02-11T20:56:22.389Z,103.13
2023-02-11T20:58:51.601Z,98.80
2023-02-11T21:01:24.060Z,97.07
2023-02-11T21:03:54.771Z,98.57
2023-02-11T21:06:25.039Z,98.03
2023-02-11T21:08:53.883Z,107.20
2023-02-11T21:11:22.434Z,94.53
2023-02-11T21:13:52.183Z,102.37
2023-02-11T21:16:22.522Z,99.50
2023-02-11T21:18:52.368Z,106.17
2023-02-11T21:21:21.188Z,110.87
2023-02-11T21:23:50.317Z,105.17
2023-02-11T21:26:19.210Z,104.77
2023-02-11T21:28:48.815Z,106.10
2023-02-11T21:31:22.744Z,98.67
2023-02-11T21:33:53.160Z,108.77
2023-02-11T21:36:22.111Z,103.80
2023-02-11T21:38:51.196Z,104.00
2023-02-11T21:41:20.020Z,100.23
2023-02-11T21:43:48.414Z,102.83
2023-02-11T21:46:18.374Z,100.13
2023-02-11T21:48:48.615Z,104.30
2023-02-11T21:51:19.548Z,100.93
2023-02-11T21:53:48.277Z,102.17
2023-02-11T21:56:18.193Z,100.07
2023-02-11T21:58:47.548Z,108.03
2023-02-11T22:01:18.193Z,101.83
2023-02-11T22:03:48.886Z,103.67
2023-02-11T22:06:21.420Z,99.20
2023-02-11T22:08:50.354Z,105.30
2023-02-11T22:11:19.838Z,95.53
2023-02-11T22:13:48.755Z,98.43
2023-02-11T22:16:18.380Z,96.07
2023-02-11T22:18:48.167Z,108.67
2023-02-11T22:21:18.817Z,102.60
2023-02-11T22:23:48.111Z,97.97
2023-02-11T22:26:19.203Z,107.37
2023-02-11T22:28:48.252Z,98.13
2023-02-11T22:31:19.458Z,97.27
2023-02-11T22:33:50.316Z,107.00
2023-02-11T22:36:21.619Z,103.37
2023-02-11T22:38:50.364Z,106.30
2023-02-11T22:41:21.990Z,104.43
2023-02-11T22:43:50.440Z,106.30
2023-02-11T22:46:22.394Z,99.07
2023-02-11T22:48:52.705Z,105.83
2023-02-11T22:51:23.369Z,97.17
2023-02-11T22:53:53.736Z,98.03
2023-02-11T22:56:22.670Z,103.60
2023-02-11T22:58:51.865Z,102.10
2023-02-11T23:01:20.805Z,99.33
2023-02-11T23:03:49.609Z,98.33
2023-02-11T23:06:19.442Z,102.23
2023-02-11T23:08:48.212Z,101.40
2023-02-11T23:11:21.524Z,103.00
2023-02-11T23:13:51.947Z,92.10
2023-02-11T23:16:22.700Z,105.70
2023-02-11T23:18:52.132Z,105.57
2023-02-11T23:21:25.569Z,103.30
2023-02-11T23:23:56.304Z,104.73
2023-02-11T23:26:24.834Z,96.93
2023-02-11T23:28:53.905Z,99.87
2023-02-11T23:31:24.794Z,102.53
2023-02-11T23:33:53.926Z,103.17
2023-02-11T23:36:24.485Z,95.50
2023-02-11T23:38:53.327Z,96.43
2023-02-11T23:41:22.383Z,95.80
2023-02-11T23:43:52.001Z,92.03
2023-02-11T23:46:21.904Z,95.80
2023-02-11T23:48:50.962Z,101.33
2023-02-11T23:51:23.726Z,98.83
2023-02-11T23:53:52.756Z,98.07
2023-02-11T23:56:23.686Z,102.70
2023-02-11T23:58:53.901Z,92.30
